sensor_id;sensor_type;location;lat;lon;timestamp;P1;durP1;ratioP1;P2;durP2;ratioP2
7029;SDS011;3556;53.500;10.176;2022-07-23T00:01:23;1.93;;;1.77;;
7029;SDS011;3556;53.500;10.176;2022-07-23T00:03:49;1.70;;;1.60;;
7029;SDS011;3556;53.500;10.176;2022-07-23T00:06:15;2.83;;;1.87;;
7029;SDS011;3556;53.500;10.176;2022-07-23T00:08:40;2.03;;;1.70;;
7029;SDS011;3556;53.500;10.176;2022-07-23T00:11:07;3.63;;;2.27;;
7029;SDS011;3556;53.500;10.176;2022-07-23T00:13:33;1.97;;;1.80;;
7029;SDS011;3556;53.500;10.176;2022-07-23T00:15:58;1.90;;;1.80;;
7029;SDS011;3556;53.500;10.176;2022-07-23T00:18:24;3.37;;;2.13;;
7029;SDS011;3556;53.500;10.176;2022-07-23T00:20:50;1.87;;;1.70;;
7029;SDS011;3556;53.500;10.176;2022-07-23T00:23:16;2.00;;;1.90;;
7029;SDS011;3556;53.500;10.176;2022-07-23T00:25:42;2.70;;;2.50;;
7029;SDS011;3556;53.500;10.176;2022-07-23T00:28:09;2.40;;;2.20;;
7029;SDS011;3556;53.500;10.176;2022-07-23T00:30:35;2.20;;;2.00;;
7029;SDS011;3556;53.500;10.176;2022-07-23T00:33:02;2.10;;;2.00;;
7029;SDS011;3556;53.500;10.176;2022-07-23T00:35:34;2.13;;;2.03;;
7029;SDS011;3556;53.500;10.176;2022-07-23T00:38:02;6.60;;;2.30;;
7029;SDS011;3556;53.500;10.176;2022-07-23T00:40:29;2.20;;;1.87;;
7029;SDS011;3556;53.500;10.176;2022-07-23T00:42:56;2.57;;;2.30;;
7029;SDS011;3556;53.500;10.176;2022-07-23T00:45:22;2.77;;;2.57;;
7029;SDS011;3556;53.500;10.176;2022-07-23T00:47:48;2.23;;;2.13;;
7029;SDS011;3556;53.500;10.176;2022-07-23T00:50:14;4.27;;;2.23;;
7029;SDS011;3556;53.500;10.176;2022-07-23T00:52:39;2.80;;;2.00;;
7029;SDS011;3556;53.500;10.176;2022-07-23T00:55:06;2.30;;;2.10;;
7029;SDS011;3556;53.500;10.176;2022-07-23T00:57:33;2.20;;;1.80;;
7029;SDS011;3556;53.500;10.176;2022-07-23T00:59:59;1.93;;;1.60;;
7029;SDS011;3556;53.500;10.176;2022-07-23T01:02:26;2.27;;;1.67;;
7029;SDS011;3556;53.500;10.176;2022-07-23T01:04:52;4.60;;;1.53;;
7029;SDS011;3556;53.500;10.176;2022-07-23T01:07:18;1.70;;;1.60;;
7029;SDS011;3556;53.500;10.176;2022-07-23T01:09:45;1.90;;;1.70;;
7029;SDS011;3556;53.500;10.176;2022-07-23T01:12:11;3.27;;;1.87;;
7029;SDS011;3556;53.500;10.176;2022-07-23T01:14:37;1.60;;;1.50;;
7029;SDS011;3556;53.500;10.176;2022-07-23T01:17:02;3.37;;;1.40;;
7029;SDS011;3556;53.500;10.176;2022-07-23T01:19:28;1.60;;;1.50;;
7029;SDS011;3556;53.500;10.176;2022-07-23T01:21:54;2.17;;;1.60;;
7029;SDS011;3556;53.500;10.176;2022-07-23T01:24:23;1.77;;;1.67;;
7029;SDS011;3556;53.500;10.176;2022-07-23T01:26:49;2.00;;;1.73;;
7029;SDS011;3556;53.500;10.176;2022-07-23T01:29:15;1.43;;;1.30;;
7029;SDS011;3556;53.500;10.176;2022-07-23T01:31:41;1.37;;;1.27;;
7029;SDS011;3556;53.500;10.176;2022-07-23T01:34:07;2.50;;;1.60;;
7029;SDS011;3556;53.500;10.176;2022-07-23T01:36:34;2.53;;;1.60;;
7029;SDS011;3556;53.500;10.176;2022-07-23T01:39:00;2.90;;;1.40;;
7029;SDS011;3556;53.500;10.176;2022-07-23T01:41:27;4.70;;;1.60;;
7029;SDS011;3556;53.500;10.176;2022-07-23T01:43:53;3.23;;;1.23;;
7029;SDS011;3556;53.500;10.176;2022-07-23T01:46:19;2.90;;;1.40;;
7029;SDS011;3556;53.500;10.176;2022-07-23T01:48:44;1.70;;;1.60;;
7029;SDS011;3556;53.500;10.176;2022-07-23T01:51:10;1.60;;;1.50;;
7029;SDS011;3556;53.500;10.176;2022-07-23T01:53:35;6.03;;;1.40;;
7029;SDS011;3556;53.500;10.176;2022-07-23T01:56:01;1.60;;;1.50;;
7029;SDS011;3556;53.500;10.176;2022-07-23T01:58:28;2.13;;;1.70;;
7029;SDS011;3556;53.500;10.176;2022-07-23T02:00:54;2.23;;;1.37;;
7029;SDS011;3556;53.500;10.176;2022-07-23T02:03:20;4.67;;;1.63;;
7029;SDS011;3556;53.500;10.176;2022-07-23T02:05:47;1.73;;;1.63;;
7029;SDS011;3556;53.500;10.176;2022-07-23T02:08:13;2.40;;;1.27;;
7029;SDS011;3556;53.500;10.176;2022-07-23T02:10:40;1.63;;;1.53;;
7029;SDS011;3556;53.500;10.176;2022-07-23T02:13:05;1.17;;;1.17;;
7029;SDS011;3556;53.500;10.176;2022-07-23T02:15:31;1.50;;;1.40;;
7029;SDS011;3556;53.500;10.176;2022-07-23T02:17:58;1.70;;;1.60;;
7029;SDS011;3556;53.500;10.176;2022-07-23T02:20:24;1.87;;;1.50;;
7029;SDS011;3556;53.500;10.176;2022-07-23T02:22:50;4.40;;;1.50;;
7029;SDS011;3556;53.500;10.176;2022-07-23T02:25:15;4.00;;;1.93;;
7029;SDS011;3556;53.500;10.176;2022-07-23T02:27:41;1.50;;;1.40;;
7029;SDS011;3556;53.500;10.176;2022-07-23T02:30:07;3.03;;;1.20;;
7029;SDS011;3556;53.500;10.176;2022-07-23T02:32:33;5.33;;;1.47;;
7029;SDS011;3556;53.500;10.176;2022-07-23T02:35:00;6.33;;;1.80;;
7029;SDS011;3556;53.500;10.176;2022-07-23T02:37:25;1.57;;;1.53;;
7029;SDS011;3556;53.500;10.176;2022-07-23T02:39:51;1.63;;;1.40;;
7029;SDS011;3556;53.500;10.176;2022-07-23T02:42:17;2.00;;;1.80;;
7029;SDS011;3556;53.500;10.176;2022-07-23T02:44:42;2.00;;;1.90;;
7029;SDS011;3556;53.500;10.176;2022-07-23T02:47:08;1.47;;;1.40;;
7029;SDS011;3556;53.500;10.176;2022-07-23T02:49:34;1.90;;;1.80;;
7029;SDS011;3556;53.500;10.176;2022-07-23T02:52:00;2.60;;;1.57;;
7029;SDS011;3556;53.500;10.176;2022-07-23T02:54:26;6.60;;;1.90;;
7029;SDS011;3556;53.500;10.176;2022-07-23T02:56:52;1.93;;;1.63;;
7029;SDS011;3556;53.500;10.176;2022-07-23T02:59:18;2.40;;;1.80;;
7029;SDS011;3556;53.500;10.176;2022-07-23T03:01:44;1.63;;;1.47;;
7029;SDS011;3556;53.500;10.176;2022-07-23T03:04:10;1.60;;;1.50;;
7029;SDS011;3556;53.500;10.176;2022-07-23T03:06:35;1.60;;;1.50;;
7029;SDS011;3556;53.500;10.176;2022-07-23T03:09:02;2.40;;;1.77;;
7029;SDS011;3556;53.500;10.176;2022-07-23T03:11:28;1.70;;;1.60;;
7029;SDS011;3556;53.500;10.176;2022-07-23T03:13:54;1.83;;;1.40;;
7029;SDS011;3556;53.500;10.176;2022-07-23T03:16:20;1.50;;;1.50;;
7029;SDS011;3556;53.500;10.176;2022-07-23T03:18:45;1.80;;;1.63;;
7029;SDS011;3556;53.500;10.176;2022-07-23T03:21:11;1.63;;;1.53;;
7029;SDS011;3556;53.500;10.176;2022-07-23T03:23:37;3.40;;;1.90;;
7029;SDS011;3556;53.500;10.176;2022-07-23T03:26:02;2.50;;;1.80;;
7029;SDS011;3556;53.500;10.176;2022-07-23T03:28:28;2.73;;;1.90;;
7029;SDS011;3556;53.500;10.176;2022-07-23T03:30:53;2.67;;;1.50;;
7029;SDS011;3556;53.500;10.176;2022-07-23T03:33:19;2.03;;;1.83;;
7029;SDS011;3556;53.500;10.176;2022-07-23T03:35:46;1.70;;;1.60;;
7029;SDS011;3556;53.500;10.176;2022-07-23T03:38:13;2.83;;;1.90;;
7029;SDS011;3556;53.500;10.176;2022-07-23T03:40:39;2.20;;;1.60;;
7029;SDS011;3556;53.500;10.176;2022-07-23T03:43:05;1.30;;;1.30;;
7029;SDS011;3556;53.500;10.176;2022-07-23T03:45:31;1.77;;;1.60;;
7029;SDS011;3556;53.500;10.176;2022-07-23T03:47:57;1.60;;;1.50;;
7029;SDS011;3556;53.500;10.176;2022-07-23T03:50:23;4.03;;;1.60;;
7029;SDS011;3556;53.500;10.176;2022-07-23T03:52:49;2.97;;;2.17;;
7029;SDS011;3556;53.500;10.176;2022-07-23T03:55:14;3.77;;;1.97;;
7029;SDS011;3556;53.500;10.176;2022-07-23T03:57:40;1.47;;;1.47;;
7029;SDS011;3556;53.500;10.176;2022-07-23T04:00:06;24.00;;;2.37;;
7029;SDS011;3556;53.500;10.176;2022-07-23T04:02:35;2.00;;;1.30;;
7029;SDS011;3556;53.500;10.176;2022-07-23T04:05:01;4.50;;;1.90;;
7029;SDS011;3556;53.500;10.176;2022-07-23T04:07:27;3.50;;;1.87;;
7029;SDS011;3556;53.500;10.176;2022-07-23T04:09:53;3.10;;;1.50;;
7029;SDS011;3556;53.500;10.176;2022-07-23T04:12:18;1.83;;;1.73;;
7029;SDS011;3556;53.500;10.176;2022-07-23T04:14:44;2.30;;;1.93;;
7029;SDS011;3556;53.500;10.176;2022-07-23T04:17:10;2.50;;;2.00;;
7029;SDS011;3556;53.500;10.176;2022-07-23T04:19:36;2.20;;;2.00;;
7029;SDS011;3556;53.500;10.176;2022-07-23T04:22:07;4.87;;;2.20;;
7029;SDS011;3556;53.500;10.176;2022-07-23T04:24:33;3.40;;;2.17;;
7029;SDS011;3556;53.500;10.176;2022-07-23T04:26:59;2.53;;;2.40;;
7029;SDS011;3556;53.500;10.176;2022-07-23T04:29:26;2.43;;;2.33;;
7029;SDS011;3556;53.500;10.176;2022-07-23T04:31:51;2.17;;;2.07;;
7029;SDS011;3556;53.500;10.176;2022-07-23T04:34:17;4.97;;;2.57;;
7029;SDS011;3556;53.500;10.176;2022-07-23T04:36:43;4.20;;;2.20;;
7029;SDS011;3556;53.500;10.176;2022-07-23T04:39:09;5.23;;;2.17;;
7029;SDS011;3556;53.500;10.176;2022-07-23T04:41:35;2.50;;;2.30;;
7029;SDS011;3556;53.500;10.176;2022-07-23T04:44:01;2.47;;;2.27;;
7029;SDS011;3556;53.500;10.176;2022-07-23T04:46:27;2.53;;;2.43;;
7029;SDS011;3556;53.500;10.176;2022-07-23T04:48:53;4.60;;;2.70;;
7029;SDS011;3556;53.500;10.176;2022-07-23T04:51:19;3.03;;;2.23;;
7029;SDS011;3556;53.500;10.176;2022-07-23T04:53:45;2.33;;;2.23;;
7029;SDS011;3556;53.500;10.176;2022-07-23T04:56:10;9.03;;;2.60;;
7029;SDS011;3556;53.500;10.176;2022-07-23T04:58:36;2.90;;;2.80;;
7029;SDS011;3556;53.500;10.176;2022-07-23T05:01:02;3.93;;;2.70;;
7029;SDS011;3556;53.500;10.176;2022-07-23T05:03:28;3.37;;;2.93;;
7029;SDS011;3556;53.500;10.176;2022-07-23T05:05:53;4.90;;;2.83;;
7029;SDS011;3556;53.500;10.176;2022-07-23T05:08:19;3.40;;;3.13;;
7029;SDS011;3556;53.500;10.176;2022-07-23T05:10:45;2.97;;;2.77;;
7029;SDS011;3556;53.500;10.176;2022-07-23T05:13:10;5.77;;;3.40;;
7029;SDS011;3556;53.500;10.176;2022-07-23T05:15:36;4.50;;;3.60;;
7029;SDS011;3556;53.500;10.176;2022-07-23T05:18:02;3.70;;;3.40;;
7029;SDS011;3556;53.500;10.176;2022-07-23T05:20:28;4.37;;;3.57;;
7029;SDS011;3556;53.500;10.176;2022-07-23T05:22:53;4.00;;;3.67;;
7029;SDS011;3556;53.500;10.176;2022-07-23T05:25:19;5.20;;;3.30;;
7029;SDS011;3556;53.500;10.176;2022-07-23T05:27:45;4.33;;;3.93;;
7029;SDS011;3556;53.500;10.176;2022-07-23T05:30:10;4.07;;;3.30;;
7029;SDS011;3556;53.500;10.176;2022-07-23T05:32:36;7.63;;;3.90;;
7029;SDS011;3556;53.500;10.176;2022-07-23T05:35:03;4.03;;;3.60;;
7029;SDS011;3556;53.500;10.176;2022-07-23T05:37:29;3.90;;;3.70;;
7029;SDS011;3556;53.500;10.176;2022-07-23T05:39:55;4.37;;;4.00;;
7029;SDS011;3556;53.500;10.176;2022-07-23T05:42:24;10.30;;;4.23;;
7029;SDS011;3556;53.500;10.176;2022-07-23T05:44:50;6.00;;;3.87;;
7029;SDS011;3556;53.500;10.176;2022-07-23T05:47:16;6.03;;;4.40;;
7029;SDS011;3556;53.500;10.176;2022-07-23T05:49:42;4.33;;;4.13;;
7029;SDS011;3556;53.500;10.176;2022-07-23T05:52:08;6.47;;;4.00;;
7029;SDS011;3556;53.500;10.176;2022-07-23T05:54:34;4.83;;;4.50;;
7029;SDS011;3556;53.500;10.176;2022-07-23T05:57:00;4.90;;;4.47;;
7029;SDS011;3556;53.500;10.176;2022-07-23T05:59:26;6.20;;;4.03;;
7029;SDS011;3556;53.500;10.176;2022-07-23T06:01:52;4.40;;;4.10;;
7029;SDS011;3556;53.500;10.176;2022-07-23T06:04:18;7.00;;;4.97;;
7029;SDS011;3556;53.500;10.176;2022-07-23T06:06:43;5.90;;;4.37;;
7029;SDS011;3556;53.500;10.176;2022-07-23T06:09:09;4.93;;;4.20;;
7029;SDS011;3556;53.500;10.176;2022-07-23T06:11:38;6.03;;;4.30;;
7029;SDS011;3556;53.500;10.176;2022-07-23T06:14:04;5.83;;;4.13;;
7029;SDS011;3556;53.500;10.176;2022-07-23T06:16:30;4.43;;;4.23;;
7029;SDS011;3556;53.500;10.176;2022-07-23T06:18:55;5.40;;;4.90;;
7029;SDS011;3556;53.500;10.176;2022-07-23T06:21:21;4.50;;;4.10;;
7029;SDS011;3556;53.500;10.176;2022-07-23T06:23:46;4.63;;;4.30;;
7029;SDS011;3556;53.500;10.176;2022-07-23T06:26:12;6.87;;;4.30;;
7029;SDS011;3556;53.500;10.176;2022-07-23T06:28:38;8.77;;;3.87;;
7029;SDS011;3556;53.500;10.176;2022-07-23T06:31:03;3.23;;;2.90;;
7029;SDS011;3556;53.500;10.176;2022-07-23T06:33:29;2.90;;;2.70;;
7029;SDS011;3556;53.500;10.176;2022-07-23T06:35:55;2.57;;;2.47;;
7029;SDS011;3556;53.500;10.176;2022-07-23T06:38:20;3.10;;;2.47;;
7029;SDS011;3556;53.500;10.176;2022-07-23T06:40:46;2.07;;;1.97;;
7029;SDS011;3556;53.500;10.176;2022-07-23T06:43:12;1.70;;;1.60;;
7029;SDS011;3556;53.500;10.176;2022-07-23T06:45:37;2.00;;;1.90;;
7029;SDS011;3556;53.500;10.176;2022-07-23T06:48:03;2.10;;;1.77;;
7029;SDS011;3556;53.500;10.176;2022-07-23T06:50:29;1.70;;;1.60;;
7029;SDS011;3556;53.500;10.176;2022-07-23T06:52:54;1.57;;;1.47;;
7029;SDS011;3556;53.500;10.176;2022-07-23T06:55:21;1.87;;;1.53;;
7029;SDS011;3556;53.500;10.176;2022-07-23T06:57:46;3.73;;;1.73;;
7029;SDS011;3556;53.500;10.176;2022-07-23T07:00:12;3.23;;;1.87;;
7029;SDS011;3556;53.500;10.176;2022-07-23T07:02:38;1.63;;;1.53;;
7029;SDS011;3556;53.500;10.176;2022-07-23T07:05:04;3.70;;;1.80;;
7029;SDS011;3556;53.500;10.176;2022-07-23T07:07:30;1.80;;;1.70;;
7029;SDS011;3556;53.500;10.176;2022-07-23T07:09:56;3.00;;;2.70;;
7029;SDS011;3556;53.500;10.176;2022-07-23T07:12:21;2.53;;;2.13;;
7029;SDS011;3556;53.500;10.176;2022-07-23T07:14:47;2.20;;;2.10;;
7029;SDS011;3556;53.500;10.176;2022-07-23T07:17:13;2.00;;;1.90;;
7029;SDS011;3556;53.500;10.176;2022-07-23T07:19:38;2.03;;;1.93;;
7029;SDS011;3556;53.500;10.176;2022-07-23T07:22:04;1.90;;;1.80;;
7029;SDS011;3556;53.500;10.176;2022-07-23T07:24:30;2.00;;;1.90;;
7029;SDS011;3556;53.500;10.176;2022-07-23T07:26:55;2.40;;;2.30;;
7029;SDS011;3556;53.500;10.176;2022-07-23T07:29:21;2.20;;;2.10;;
7029;SDS011;3556;53.500;10.176;2022-07-23T07:31:46;2.10;;;2.00;;
7029;SDS011;3556;53.500;10.176;2022-07-23T07:34:12;3.00;;;1.80;;
7029;SDS011;3556;53.500;10.176;2022-07-23T07:36:38;1.50;;;1.40;;
7029;SDS011;3556;53.500;10.176;2022-07-23T07:39:04;2.67;;;1.10;;
7029;SDS011;3556;53.500;10.176;2022-07-23T07:41:30;2.93;;;1.37;;
7029;SDS011;3556;53.500;10.176;2022-07-23T07:43:56;4.30;;;1.80;;
7029;SDS011;3556;53.500;10.176;2022-07-23T07:46:21;3.20;;;1.60;;
7029;SDS011;3556;53.500;10.176;2022-07-23T07:48:49;2.13;;;1.53;;
7029;SDS011;3556;53.500;10.176;2022-07-23T07:51:15;1.40;;;1.30;;
7029;SDS011;3556;53.500;10.176;2022-07-23T07:53:41;2.57;;;1.57;;
7029;SDS011;3556;53.500;10.176;2022-07-23T07:56:06;2.40;;;1.50;;
7029;SDS011;3556;53.500;10.176;2022-07-23T07:58:32;1.20;;;1.20;;
7029;SDS011;3556;53.500;10.176;2022-07-23T08:00:58;2.03;;;1.30;;
7029;SDS011;3556;53.500;10.176;2022-07-23T08:03:23;2.87;;;1.30;;
7029;SDS011;3556;53.500;10.176;2022-07-23T08:05:49;1.63;;;1.53;;
7029;SDS011;3556;53.500;10.176;2022-07-23T08:08:15;1.33;;;1.23;;
7029;SDS011;3556;53.500;10.176;2022-07-23T08:10:41;1.40;;;1.30;;
7029;SDS011;3556;53.500;10.176;2022-07-23T08:13:08;2.00;;;1.40;;
7029;SDS011;3556;53.500;10.176;2022-07-23T08:15:39;1.63;;;1.53;;
7029;SDS011;3556;53.500;10.176;2022-07-23T08:18:05;1.60;;;1.13;;
7029;SDS011;3556;53.500;10.176;2022-07-23T08:20:31;1.23;;;1.13;;
7029;SDS011;3556;53.500;10.176;2022-07-23T08:23:02;1.80;;;1.00;;
7029;SDS011;3556;53.500;10.176;2022-07-23T08:25:29;2.20;;;1.00;;
7029;SDS011;3556;53.500;10.176;2022-07-23T08:27:58;1.20;;;1.20;;
7029;SDS011;3556;53.500;10.176;2022-07-23T08:30:25;1.27;;;1.10;;
7029;SDS011;3556;53.500;10.176;2022-07-23T08:35:31;0.90;;;0.90;;
7029;SDS011;3556;53.500;10.176;2022-07-23T08:37:58;1.13;;;1.10;;
7029;SDS011;3556;53.500;10.176;2022-07-23T08:40:25;1.20;;;1.03;;
7029;SDS011;3556;53.500;10.176;2022-07-23T08:42:52;1.13;;;0.90;;
7029;SDS011;3556;53.500;10.176;2022-07-23T08:45:19;0.93;;;0.93;;
7029;SDS011;3556;53.500;10.176;2022-07-23T08:47:48;1.53;;;1.10;;
7029;SDS011;3556;53.500;10.176;2022-07-23T08:50:15;2.40;;;0.90;;
7029;SDS011;3556;53.500;10.176;2022-07-23T08:52:41;1.23;;;0.80;;
7029;SDS011;3556;53.500;10.176;2022-07-23T08:55:07;0.70;;;0.70;;
7029;SDS011;3556;53.500;10.176;2022-07-23T08:57:33;0.80;;;0.80;;
7029;SDS011;3556;53.500;10.176;2022-07-23T08:59:59;0.70;;;0.70;;
7029;SDS011;3556;53.500;10.176;2022-07-23T09:02:25;1.43;;;0.70;;
7029;SDS011;3556;53.500;10.176;2022-07-23T09:04:50;2.00;;;0.70;;
7029;SDS011;3556;53.500;10.176;2022-07-23T09:07:16;0.73;;;0.70;;
7029;SDS011;3556;53.500;10.176;2022-07-23T09:09:42;1.17;;;0.80;;
7029;SDS011;3556;53.500;10.176;2022-07-23T09:12:09;0.60;;;0.60;;
7029;SDS011;3556;53.500;10.176;2022-07-23T09:14:36;0.70;;;0.70;;
7029;SDS011;3556;53.500;10.176;2022-07-23T09:17:08;0.97;;;0.67;;
7029;SDS011;3556;53.500;10.176;2022-07-23T09:19:39;0.80;;;0.80;;
7029;SDS011;3556;53.500;10.176;2022-07-23T09:30:18;2.33;;;0.70;;
7029;SDS011;3556;53.500;10.176;2022-07-23T09:33:02;0.90;;;0.90;;
7029;SDS011;3556;53.500;10.176;2022-07-23T09:35:45;0.97;;;0.83;;
7029;SDS011;3556;53.500;10.176;2022-07-23T09:38:11;1.33;;;0.70;;
7029;SDS011;3556;53.500;10.176;2022-07-23T09:40:37;1.00;;;0.67;;
7029;SDS011;3556;53.500;10.176;2022-07-23T09:43:03;0.90;;;0.70;;
7029;SDS011;3556;53.500;10.176;2022-07-23T09:45:28;1.40;;;0.80;;
7029;SDS011;3556;53.500;10.176;2022-07-23T09:48:14;0.90;;;0.77;;
7029;SDS011;3556;53.500;10.176;2022-07-23T09:50:41;1.33;;;0.80;;
7029;SDS011;3556;53.500;10.176;2022-07-23T09:53:08;1.30;;;1.20;;
7029;SDS011;3556;53.500;10.176;2022-07-23T09:55:34;0.60;;;0.60;;
7029;SDS011;3556;53.500;10.176;2022-07-23T09:58:03;1.40;;;1.30;;
7029;SDS011;3556;53.500;10.176;2022-07-23T10:00:36;0.80;;;0.80;;
7029;SDS011;3556;53.500;10.176;2022-07-23T10:03:02;0.73;;;0.73;;
7029;SDS011;3556;53.500;10.176;2022-07-23T10:05:30;0.90;;;0.60;;
7029;SDS011;3556;53.500;10.176;2022-07-23T10:07:55;0.67;;;0.67;;
7029;SDS011;3556;53.500;10.176;2022-07-23T10:10:24;0.70;;;0.70;;
7029;SDS011;3556;53.500;10.176;2022-07-23T10:12:53;1.70;;;0.90;;
7029;SDS011;3556;53.500;10.176;2022-07-23T10:15:38;1.00;;;1.00;;
7029;SDS011;3556;53.500;10.176;2022-07-23T10:18:06;1.03;;;0.80;;
7029;SDS011;3556;53.500;10.176;2022-07-23T10:20:32;0.70;;;0.70;;
7029;SDS011;3556;53.500;10.176;2022-07-23T10:26:24;0.80;;;0.70;;
7029;SDS011;3556;53.500;10.176;2022-07-23T10:32:17;0.80;;;0.80;;
7029;SDS011;3556;53.500;10.176;2022-07-23T10:37:42;16.83;;;1.40;;
7029;SDS011;3556;53.500;10.176;2022-07-23T10:42:42;0.80;;;0.80;;
7029;SDS011;3556;53.500;10.176;2022-07-23T10:45:22;1.23;;;0.80;;
7029;SDS011;3556;53.500;10.176;2022-07-23T10:47:56;0.80;;;0.80;;
7029;SDS011;3556;53.500;10.176;2022-07-23T10:56:17;1.27;;;0.60;;
7029;SDS011;3556;53.500;10.176;2022-07-23T10:59:04;0.70;;;0.63;;
7029;SDS011;3556;53.500;10.176;2022-07-23T11:04:02;1.20;;;0.70;;
7029;SDS011;3556;53.500;10.176;2022-07-23T11:14:59;1.63;;;0.70;;
7029;SDS011;3556;53.500;10.176;2022-07-23T11:17:34;0.60;;;0.60;;
7029;SDS011;3556;53.500;10.176;2022-07-23T11:22:45;2.20;;;0.63;;
7029;SDS011;3556;53.500;10.176;2022-07-23T11:25:14;0.60;;;0.60;;
7029;SDS011;3556;53.500;10.176;2022-07-23T11:28:11;0.80;;;0.63;;
7029;SDS011;3556;53.500;10.176;2022-07-23T11:30:43;0.60;;;0.60;;
7029;SDS011;3556;53.500;10.176;2022-07-23T11:35:36;0.80;;;0.60;;
7029;SDS011;3556;53.500;10.176;2022-07-23T11:38:06;1.80;;;0.57;;
7029;SDS011;3556;53.500;10.176;2022-07-23T11:40:39;2.17;;;0.70;;
7029;SDS011;3556;53.500;10.176;2022-07-23T11:43:06;0.63;;;0.57;;
7029;SDS011;3556;53.500;10.176;2022-07-23T11:45:40;1.03;;;1.03;;
7029;SDS011;3556;53.500;10.176;2022-07-23T11:50:45;0.70;;;0.60;;
7029;SDS011;3556;53.500;10.176;2022-07-23T11:53:11;0.70;;;0.63;;
7029;SDS011;3556;53.500;10.176;2022-07-23T11:55:37;1.23;;;0.53;;
7029;SDS011;3556;53.500;10.176;2022-07-23T11:58:03;0.87;;;0.60;;
7029;SDS011;3556;53.500;10.176;2022-07-23T12:00:29;0.70;;;0.50;;
7029;SDS011;3556;53.500;10.176;2022-07-23T12:02:57;1.20;;;0.63;;
7029;SDS011;3556;53.500;10.176;2022-07-23T12:05:26;0.60;;;0.50;;
7029;SDS011;3556;53.500;10.176;2022-07-23T12:07:55;0.70;;;0.60;;
7029;SDS011;3556;53.500;10.176;2022-07-23T12:12:54;2.73;;;0.63;;
7029;SDS011;3556;53.500;10.176;2022-07-23T12:15:22;3.00;;;1.20;;
7029;SDS011;3556;53.500;10.176;2022-07-23T12:17:50;0.70;;;0.63;;
7029;SDS011;3556;53.500;10.176;2022-07-23T12:20:18;4.80;;;0.70;;
7029;SDS011;3556;53.500;10.176;2022-07-23T12:22:50;1.27;;;0.83;;
7029;SDS011;3556;53.500;10.176;2022-07-23T12:25:19;0.80;;;0.80;;
7029;SDS011;3556;53.500;10.176;2022-07-23T12:27:56;1.90;;;0.90;;
7029;SDS011;3556;53.500;10.176;2022-07-23T12:30:31;0.80;;;0.70;;
7029;SDS011;3556;53.500;10.176;2022-07-23T12:32:59;1.63;;;0.77;;
7029;SDS011;3556;53.500;10.176;2022-07-23T12:36:00;2.03;;;0.80;;
7029;SDS011;3556;53.500;10.176;2022-07-23T12:38:22;1.63;;;1.00;;
7029;SDS011;3556;53.500;10.176;2022-07-23T12:40:50;0.93;;;0.90;;
7029;SDS011;3556;53.500;10.176;2022-07-23T12:43:20;2.20;;;1.10;;
7029;SDS011;3556;53.500;10.176;2022-07-23T12:45:51;0.67;;;0.67;;
7029;SDS011;3556;53.500;10.176;2022-07-23T12:48:21;1.03;;;1.03;;
7029;SDS011;3556;53.500;10.176;2022-07-23T12:50:59;2.80;;;1.07;;
7029;SDS011;3556;53.500;10.176;2022-07-23T12:53:28;3.90;;;1.10;;
7029;SDS011;3556;53.500;10.176;2022-07-23T12:56:01;1.20;;;1.10;;
7029;SDS011;3556;53.500;10.176;2022-07-23T12:58:27;1.23;;;1.10;;
7029;SDS011;3556;53.500;10.176;2022-07-23T13:01:05;0.80;;;0.80;;
7029;SDS011;3556;53.500;10.176;2022-07-23T13:03:32;2.90;;;1.10;;
7029;SDS011;3556;53.500;10.176;2022-07-23T13:06:07;1.10;;;1.00;;
7029;SDS011;3556;53.500;10.176;2022-07-23T13:08:34;2.63;;;1.27;;
7029;SDS011;3556;53.500;10.176;2022-07-23T13:11:03;1.40;;;1.10;;
7029;SDS011;3556;53.500;10.176;2022-07-23T13:13:30;1.10;;;0.90;;
7029;SDS011;3556;53.500;10.176;2022-07-23T13:15:57;0.90;;;0.90;;
7029;SDS011;3556;53.500;10.176;2022-07-23T13:18:23;2.13;;;1.10;;
7029;SDS011;3556;53.500;10.176;2022-07-23T13:20:50;1.00;;;1.00;;
7029;SDS011;3556;53.500;10.176;2022-07-23T13:23:16;2.30;;;1.33;;
7029;SDS011;3556;53.500;10.176;2022-07-23T13:25:42;1.30;;;1.10;;
7029;SDS011;3556;53.500;10.176;2022-07-23T13:28:09;7.90;;;1.00;;
7029;SDS011;3556;53.500;10.176;2022-07-23T13:30:37;1.13;;;0.83;;
7029;SDS011;3556;53.500;10.176;2022-07-23T13:33:03;1.13;;;1.03;;
7029;SDS011;3556;53.500;10.176;2022-07-23T13:35:29;1.87;;;1.00;;
7029;SDS011;3556;53.500;10.176;2022-07-23T13:37:55;1.97;;;1.10;;
7029;SDS011;3556;53.500;10.176;2022-07-23T13:40:21;1.00;;;1.00;;
7029;SDS011;3556;53.500;10.176;2022-07-23T13:42:47;1.00;;;0.80;;
7029;SDS011;3556;53.500;10.176;2022-07-23T13:45:13;2.20;;;0.70;;
7029;SDS011;3556;53.500;10.176;2022-07-23T13:47:39;1.10;;;1.00;;
7029;SDS011;3556;53.500;10.176;2022-07-23T13:50:05;1.47;;;0.90;;
7029;SDS011;3556;53.500;10.176;2022-07-23T13:52:31;0.80;;;0.80;;
7029;SDS011;3556;53.500;10.176;2022-07-23T13:54:58;1.83;;;0.90;;
7029;SDS011;3556;53.500;10.176;2022-07-23T13:57:29;2.50;;;0.80;;
7029;SDS011;3556;53.500;10.176;2022-07-23T13:59:55;1.53;;;0.87;;
7029;SDS011;3556;53.500;10.176;2022-07-23T14:02:21;5.40;;;0.93;;
7029;SDS011;3556;53.500;10.176;2022-07-23T14:04:47;2.77;;;0.90;;
7029;SDS011;3556;53.500;10.176;2022-07-23T14:07:13;0.70;;;0.70;;
7029;SDS011;3556;53.500;10.176;2022-07-23T14:09:39;0.80;;;0.80;;
7029;SDS011;3556;53.500;10.176;2022-07-23T14:12:04;0.90;;;0.90;;
7029;SDS011;3556;53.500;10.176;2022-07-23T14:14:31;0.80;;;0.80;;
7029;SDS011;3556;53.500;10.176;2022-07-23T14:16:56;2.43;;;1.10;;
7029;SDS011;3556;53.500;10.176;2022-07-23T14:19:22;1.23;;;0.63;;
7029;SDS011;3556;53.500;10.176;2022-07-23T14:21:48;1.23;;;0.90;;
7029;SDS011;3556;53.500;10.176;2022-07-23T14:24:14;0.70;;;0.70;;
7029;SDS011;3556;53.500;10.176;2022-07-23T14:26:40;1.90;;;0.87;;
7029;SDS011;3556;53.500;10.176;2022-07-23T14:29:06;2.17;;;0.70;;
7029;SDS011;3556;53.500;10.176;2022-07-23T14:31:32;1.77;;;0.90;;
7029;SDS011;3556;53.500;10.176;2022-07-23T14:33:58;1.17;;;0.80;;
7029;SDS011;3556;53.500;10.176;2022-07-23T14:36:24;1.37;;;0.97;;
7029;SDS011;3556;53.500;10.176;2022-07-23T14:38:50;2.60;;;0.80;;
7029;SDS011;3556;53.500;10.176;2022-07-23T14:41:16;1.37;;;0.97;;
7029;SDS011;3556;53.500;10.176;2022-07-23T14:43:41;1.20;;;1.10;;
7029;SDS011;3556;53.500;10.176;2022-07-23T14:46:07;1.80;;;1.40;;
7029;SDS011;3556;53.500;10.176;2022-07-23T14:48:33;0.90;;;0.90;;
7029;SDS011;3556;53.500;10.176;2022-07-23T14:50:58;2.50;;;1.23;;
7029;SDS011;3556;53.500;10.176;2022-07-23T14:53:24;1.03;;;0.93;;
7029;SDS011;3556;53.500;10.176;2022-07-23T14:55:50;1.77;;;0.90;;
7029;SDS011;3556;53.500;10.176;2022-07-23T14:58:15;2.03;;;1.00;;
7029;SDS011;3556;53.500;10.176;2022-07-23T15:00:42;3.23;;;0.93;;
7029;SDS011;3556;53.500;10.176;2022-07-23T15:03:08;0.93;;;0.83;;
7029;SDS011;3556;53.500;10.176;2022-07-23T15:05:33;1.13;;;0.80;;
7029;SDS011;3556;53.500;10.176;2022-07-23T15:07:59;1.03;;;0.77;;
7029;SDS011;3556;53.500;10.176;2022-07-23T15:10:25;7.17;;;1.10;;
7029;SDS011;3556;53.500;10.176;2022-07-23T15:12:51;0.70;;;0.70;;
7029;SDS011;3556;53.500;10.176;2022-07-23T15:15:16;1.10;;;0.80;;
7029;SDS011;3556;53.500;10.176;2022-07-23T15:17:42;0.70;;;0.70;;
7029;SDS011;3556;53.500;10.176;2022-07-23T15:20:09;1.67;;;0.70;;
7029;SDS011;3556;53.500;10.176;2022-07-23T15:22:34;0.80;;;0.80;;
7029;SDS011;3556;53.500;10.176;2022-07-23T15:25:00;1.73;;;0.93;;
7029;SDS011;3556;53.500;10.176;2022-07-23T15:27:26;1.23;;;1.13;;
7029;SDS011;3556;53.500;10.176;2022-07-23T15:29:52;0.90;;;0.90;;
7029;SDS011;3556;53.500;10.176;2022-07-23T15:32:18;1.93;;;0.77;;
7029;SDS011;3556;53.500;10.176;2022-07-23T15:34:43;1.23;;;0.90;;
7029;SDS011;3556;53.500;10.176;2022-07-23T15:37:09;2.90;;;0.90;;
7029;SDS011;3556;53.500;10.176;2022-07-23T15:39:35;0.93;;;0.90;;
7029;SDS011;3556;53.500;10.176;2022-07-23T15:42:01;0.90;;;0.90;;
7029;SDS011;3556;53.500;10.176;2022-07-23T15:44:27;0.87;;;0.87;;
7029;SDS011;3556;53.500;10.176;2022-07-23T15:46:53;2.40;;;0.80;;
7029;SDS011;3556;53.500;10.176;2022-07-23T15:49:18;0.90;;;0.90;;